createdAt,value
2017-10-06T00:00:17.084Z,100468.83
2017-10-06T00:02:44.487Z,100468.33
2017-10-06T00:05:11.907Z,100465.86
2017-10-06T00:07:39.307Z,100473.12
2017-10-06T00:10:06.716Z,100471.48
2017-10-06T00:12:34.136Z,100475.08
2017-10-06T00:15:01.542Z,100473.36
2017-10-06T00:17:28.935Z,100469.36
2017-10-06T00:19:56.364Z,100481.36
2017-10-06T00:22:23.755Z,100478.47
2017-10-06T00:24:51.160Z,100479.11
2017-10-06T00:27:18.571Z,100479.11
2017-10-06T00:29:45.971Z,100474.39
2017-10-06T00:32:13.367Z,100472.52
2017-10-06T00:34:40.927Z,100479.11
2017-10-06T00:37:08.331Z,100483.09
2017-10-06T00:39:35.735Z,100483.59
2017-10-06T00:42:03.166Z,100482.38
2017-10-06T00:44:30.559Z,100487.88
2017-10-06T00:46:57.964Z,100483.09
2017-10-06T00:49:25.384Z,100486.78
2017-10-06T00:51:52.787Z,100478.37
2017-10-06T00:54:20.191Z,100486.36
2017-10-06T00:56:47.607Z,100485.03
2017-10-06T00:59:15.012Z,100485.33
2017-10-06T01:01:42.420Z,100479.89
2017-10-06T01:04:09.984Z,100479.80
2017-10-06T01:06:37.391Z,100473.55
2017-10-06T01:09:04.791Z,100472.27
2017-10-06T01:11:32.210Z,100475.78
2017-10-06T01:13:59.611Z,100471.97
2017-10-06T01:16:27.023Z,100473.93
2017-10-06T01:18:54.435Z,100469.00
2017-10-06T01:21:21.844Z,100468.08
2017-10-06T01:23:49.235Z,100465.73
2017-10-06T01:26:16.657Z,100459.09
2017-10-06T01:28:44.067Z,100453.16
2017-10-06T01:31:11.467Z,100453.36
2017-10-06T01:33:38.885Z,100458.50
2017-10-06T01:36:06.275Z,100453.06
2017-10-06T01:38:33.679Z,100456.94
2017-10-06T01:41:01.111Z,100460.14
2017-10-06T01:43:28.511Z,100454.91
2017-10-06T01:45:55.911Z,100454.27
2017-10-06T01:48:23.335Z,100463.38
2017-10-06T01:50:50.740Z,100457.13
2017-10-06T01:53:18.139Z,100458.58
2017-10-06T01:55:45.555Z,100458.17
2017-10-06T01:58:12.955Z,100457.95
2017-10-06T02:00:40.359Z,100465.03
2017-10-06T02:03:07.780Z,100459.41
2017-10-06T02:05:35.177Z,100457.77
2017-10-06T02:08:02.575Z,100461.55
2017-10-06T02:10:29.995Z,100459.53
2017-10-06T02:12:57.408Z,100455.12
2017-10-06T02:15:24.811Z,100455.20
2017-10-06T02:17:52.228Z,100453.56
2017-10-06T02:20:19.640Z,100451.50
2017-10-06T02:22:47.044Z,100453.45
2017-10-06T02:25:14.455Z,100456.53
2017-10-06T02:27:41.855Z,100454.78
2017-10-06T02:30:09.263Z,100455.50
2017-10-06T02:32:36.675Z,100455.19
2017-10-06T02:35:04.078Z,100458.16
2017-10-06T02:37:31.479Z,100457.75
2017-10-06T02:39:58.896Z,100455.80
2017-10-06T02:42:26.287Z,100454.89
2017-10-06T02:44:53.688Z,100459.00
2017-10-06T02:47:21.109Z,100458.05
2017-10-06T02:49:48.514Z,100447.80
2017-10-06T02:52:15.912Z,100441.55
2017-10-06T02:54:43.326Z,100451.00
2017-10-06T02:57:10.731Z,100442.77
2017-10-06T02:59:38.127Z,100454.27
2017-10-06T03:02:05.547Z,100448.41
2017-10-06T03:04:32.952Z,100451.19
2017-10-06T03:07:00.355Z,100454.78
2017-10-06T03:09:27.913Z,100453.66
2017-10-06T03:11:55.311Z,100454.05
2017-10-06T03:14:22.703Z,100459.38
2017-10-06T03:16:50.119Z,100459.49
2017-10-06T03:19:17.518Z,100455.80
2017-10-06T03:21:44.924Z,100459.30
2017-10-06T03:24:12.349Z,100453.73
2017-10-06T03:26:39.743Z,100455.49
2017-10-06T03:29:07.153Z,100459.19
2017-10-06T03:31:34.571Z,100453.05
2017-10-06T03:34:01.972Z,100457.05
2017-10-06T03:36:29.371Z,100454.47
2017-10-06T03:38:56.783Z,100455.30
2017-10-06T03:41:24.176Z,100451.48
2017-10-06T03:43:51.584Z,100448.50
2017-10-06T03:46:18.999Z,100455.38
2017-10-06T03:48:46.395Z,100456.94
2017-10-06T03:51:13.800Z,100457.05
2017-10-06T03:53:41.216Z,100455.91
2017-10-06T03:56:08.907Z,100459.78
2017-10-06T03:58:36.295Z,100462.45
2017-10-06T04:01:03.705Z,100455.97
2017-10-06T04:03:31.107Z,100462.86
2017-10-06T04:05:58.508Z,100465.42
2017-10-06T04:08:25.919Z,100462.16
2017-10-06T04:10:53.320Z,100460.83
2017-10-06T04:13:20.708Z,100461.93
2017-10-06T04:15:48.114Z,100460.72
2017-10-06T04:18:15.523Z,100461.53
2017-10-06T04:20:42.916Z,100459.08
2017-10-06T04:23:10.327Z,100450.27
2017-10-06T04:25:37.725Z,100452.20
2017-10-06T04:28:05.131Z,100449.30
2017-10-06T04:30:32.561Z,100456.30
2017-10-06T04:32:59.948Z,100451.91
2017-10-06T04:35:27.356Z,100455.98
2017-10-06T04:37:54.755Z,100464.91
2017-10-06T04:40:22.161Z,100465.44
2017-10-06T04:42:49.555Z,100476.11
2017-10-06T04:45:16.972Z,100478.70
2017-10-06T04:47:44.372Z,100475.91
2017-10-06T04:50:11.771Z,100472.44
2017-10-06T04:52:39.183Z,100474.67
2017-10-06T04:55:06.586Z,100472.94
2017-10-06T04:57:33.994Z,100469.00
2017-10-06T05:00:01.403Z,100469.11
2017-10-06T05:02:28.857Z,100466.56
2017-10-06T05:04:56.256Z,100457.30
2017-10-06T05:07:23.671Z,100472.19
2017-10-06T05:09:51.075Z,100465.72
2017-10-06T05:12:18.484Z,100463.60
2017-10-06T05:14:45.903Z,100460.61
2017-10-06T05:17:13.310Z,100456.92
2017-10-06T05:19:40.711Z,100457.27
2017-10-06T05:22:08.128Z,100462.67
2017-10-06T05:24:35.538Z,100461.77
2017-10-06T05:27:02.936Z,100470.56
2017-10-06T05:29:30.352Z,100477.86
2017-10-06T05:31:57.755Z,100479.91
2017-10-06T05:34:25.202Z,100472.71
2017-10-06T05:36:52.616Z,100478.47
2017-10-06T05:39:20.020Z,100475.91
2017-10-06T05:41:47.424Z,100472.00
2017-10-06T05:44:14.835Z,100470.77
2017-10-06T05:46:42.236Z,100471.20
2017-10-06T05:49:09.644Z,100471.39
2017-10-06T05:51:37.078Z,100466.06
2017-10-06T05:54:04.488Z,100467.70
2017-10-06T05:56:31.891Z,100465.02
2017-10-06T05:58:59.307Z,100466.75
2017-10-06T06:01:26.711Z,100470.05
2017-10-06T06:03:54.119Z,100480.28
2017-10-06T06:06:21.535Z,100477.13
2017-10-06T06:08:48.953Z,100477.13
2017-10-06T06:11:16.359Z,100481.14
2017-10-06T06:13:43.779Z,100485.13
2017-10-06T06:16:11.179Z,100487.17
2017-10-06T06:18:38.588Z,100492.91
2017-10-06T06:21:06.018Z,100492.91
2017-10-06T06:23:33.415Z,100494.13
2017-10-06T06:26:00.819Z,100492.08
2017-10-06T06:28:28.240Z,100496.70
2017-10-06T06:30:55.644Z,100502.24
2017-10-06T06:33:23.043Z,100496.51
2017-10-06T06:35:50.601Z,100497.66
2017-10-06T06:38:18.000Z,100496.83
2017-10-06T06:40:45.403Z,100502.08
2017-10-06T06:43:12.814Z,100502.16
2017-10-06T06:45:40.216Z,100503.30
2017-10-06T06:48:07.619Z,100500.94
2017-10-06T06:50:35.045Z,100509.55
2017-10-06T06:53:02.455Z,100514.58
2017-10-06T06:55:29.855Z,100518.09
2017-10-06T06:57:57.280Z,100520.44
2017-10-06T07:00:24.675Z,100517.44
2017-10-06T07:02:52.075Z,100512.02
2017-10-06T07:05:19.490Z,100519.10
2017-10-06T07:07:46.884Z,100529.47
2017-10-06T07:10:14.293Z,100518.77
2017-10-06T07:12:41.732Z,100524.63
2017-10-06T07:15:09.123Z,100525.05
2017-10-06T07:17:36.522Z,100530.59
2017-10-06T07:20:03.938Z,100533.67
2017-10-06T07:22:31.339Z,100527.39
2017-10-06T07:24:58.735Z,100533.98
2017-10-06T07:27:26.151Z,100545.98
2017-10-06T07:29:53.551Z,100545.14
2017-10-06T07:32:20.951Z,100546.78
2017-10-06T07:34:48.362Z,100550.40
2017-10-06T07:37:15.766Z,100543.42
2017-10-06T07:39:43.159Z,100544.00
2017-10-06T07:42:10.571Z,100553.34
2017-10-06T07:44:37.971Z,100560.73
2017-10-06T07:47:05.375Z,100559.20
2017-10-06T07:49:32.798Z,100563.32
2017-10-06T07:52:00.199Z,100564.42
2017-10-06T07:54:27.601Z,100564.73
2017-10-06T07:56:55.015Z,100570.60
2017-10-06T07:59:22.417Z,100579.86
2017-10-06T08:01:49.815Z,100573.60
2017-10-06T08:04:17.222Z,100574.30
2017-10-06T08:06:44.619Z,100575.02
2017-10-06T08:09:12.015Z,100576.77
2017-10-06T08:11:39.423Z,100571.63
2017-10-06T08:14:06.817Z,100578.29
2017-10-06T08:16:34.211Z,100574.38
2017-10-06T08:19:01.619Z,100576.00
2017-10-06T08:21:29.045Z,100570.95
2017-10-06T08:23:56.443Z,100570.42
2017-10-06T08:26:23.851Z,100580.41
2017-10-06T08:28:51.272Z,100579.24
2017-10-06T08:31:18.679Z,100584.44
2017-10-06T08:33:46.100Z,100579.78
2017-10-06T08:36:13.487Z,100579.98
2017-10-06T08:38:40.879Z,100586.00
2017-10-06T08:41:08.284Z,100583.29
2017-10-06T08:43:35.682Z,100589.81
2017-10-06T08:46:03.076Z,100593.47
2017-10-06T08:48:30.495Z,100595.00
2017-10-06T08:50:57.887Z,100601.69
2017-10-06T08:53:25.276Z,100601.36
2017-10-06T08:55:52.687Z,100612.19
2017-10-06T08:58:20.085Z,100608.81
2017-10-06T09:00:47.479Z,100609.19
2017-10-06T09:03:14.887Z,100613.13
2017-10-06T09:05:42.295Z,100610.02
2017-10-06T09:08:09.695Z,100611.02
2017-10-06T09:10:37.119Z,100615.12
2017-10-06T09:13:04.515Z,100623.32
2017-10-06T09:15:31.912Z,100613.87
2017-10-06T09:17:59.347Z,100629.11
2017-10-06T09:20:26.747Z,100632.40
2017-10-06T09:22:54.147Z,100627.78
2017-10-06T09:25:21.572Z,100628.88
2017-10-06T09:27:48.972Z,100630.33
2017-10-06T09:30:16.376Z,100637.63
2017-10-06T09:32:43.798Z,100646.27
2017-10-06T09:35:11.204Z,100644.02
2017-10-06T09:37:38.595Z,100655.18
2017-10-06T09:40:06.011Z,100656.83
2017-10-06T09:42:33.407Z,100665.55
2017-10-06T09:45:00.807Z,100664.63
2017-10-06T09:47:28.225Z,100675.88
2017-10-06T09:49:55.634Z,100674.99
2017-10-06T09:52:23.032Z,100675.73
2017-10-06T09:54:50.451Z,100680.83
2017-10-06T09:57:17.851Z,100689.14
2017-10-06T09:59:45.264Z,100691.81
2017-10-06T10:02:12.664Z,100693.88
2017-10-06T10:04:40.067Z,100689.07
2017-10-06T10:07:07.468Z,100694.02
2017-10-06T10:09:34.879Z,100695.75
2017-10-06T10:12:02.301Z,100693.78
2017-10-06T10:14:29.698Z,100694.67
2017-10-06T10:16:57.111Z,100690.71
2017-10-06T10:19:24.516Z,100695.89
2017-10-06T10:21:51.915Z,100707.49
2017-10-06T10:24:19.319Z,100703.17
2017-10-06T10:26:46.719Z,100711.05
2017-10-06T10:29:14.115Z,100708.71
2017-10-06T10:31:41.527Z,100717.77
2017-10-06T10:34:08.922Z,100720.97
2017-10-06T10:36:36.312Z,100730.09
2017-10-06T10:39:03.716Z,100731.89
2017-10-06T10:41:31.115Z,100732.22
2017-10-06T10:43:58.515Z,100728.44
2017-10-06T10:46:25.927Z,100728.58
2017-10-06T10:48:53.329Z,100728.97
2017-10-06T10:51:20.719Z,100731.80
2017-10-06T10:53:48.123Z,100735.45
2017-10-06T10:56:15.516Z,100732.61
2017-10-06T10:58:42.912Z,100738.64
2017-10-06T11:01:10.331Z,100733.55
2017-10-06T11:03:37.730Z,100737.60
2017-10-06T11:06:05.124Z,100736.89
2017-10-06T11:08:32.523Z,100729.47
2017-10-06T11:10:59.915Z,100732.95
2017-10-06T11:13:27.306Z,100728.20
2017-10-06T11:15:54.715Z,100733.17
2017-10-06T11:18:22.103Z,100736.52
2017-10-06T11:20:49.506Z,100733.36
2017-10-06T11:23:16.919Z,100738.84
2017-10-06T11:25:44.341Z,100744.90
2017-10-06T11:28:11.747Z,100742.61
2017-10-06T11:30:39.150Z,100744.48
2017-10-06T11:33:06.575Z,100736.57
2017-10-06T11:35:33.981Z,100737.92
2017-10-06T11:38:01.405Z,100734.00
2017-10-06T11:40:28.805Z,100735.61
2017-10-06T11:42:56.207Z,100740.09
2017-10-06T11:45:23.619Z,100737.53
2017-10-06T11:47:51.021Z,100744.23
2017-10-06T11:50:18.427Z,100744.73
2017-10-06T11:52:45.839Z,100744.30
2017-10-06T11:55:13.235Z,100756.93
2017-10-06T11:57:40.641Z,100758.08
2017-10-06T12:00:08.098Z,100760.70
2017-10-06T12:02:35.479Z,100763.05
2017-10-06T12:05:02.880Z,100762.81
2017-10-06T12:07:30.295Z,100754.72
2017-10-06T12:09:57.706Z,100748.92
2017-10-06T12:12:25.124Z,100757.25
2017-10-06T12:14:52.526Z,100761.16
2017-10-06T12:17:19.940Z,100767.42
2017-10-06T12:19:47.327Z,100763.09
2017-10-06T12:22:14.727Z,100770.05
2017-10-06T12:24:42.130Z,100759.64
2017-10-06T12:27:09.525Z,100768.87
2017-10-06T12:29:36.938Z,100757.97
2017-10-06T12:32:04.346Z,100754.39
2017-10-06T12:34:31.735Z,100760.41
2017-10-06T12:36:59.171Z,100760.05
2017-10-06T12:39:26.571Z,100758.91
2017-10-06T12:41:54.713Z,100762.22
2017-10-06T12:44:22.131Z,100763.08
2017-10-06T12:46:49.568Z,100766.41
2017-10-06T12:49:17.435Z,100773.63
2017-10-06T12:51:44.844Z,100780.36
2017-10-06T12:54:12.256Z,100779.05
2017-10-06T12:56:39.648Z,100776.67
2017-10-06T12:59:07.051Z,100788.28
2017-10-06T13:01:34.451Z,100803.45
2017-10-06T13:04:01.868Z,100808.85
2017-10-06T13:06:29.668Z,100797.30
2017-10-06T13:08:57.091Z,100795.25
2017-10-06T13:11:24.590Z,100796.74
2017-10-06T13:13:53.206Z,100801.48
2017-10-06T13:16:21.184Z,100797.08
2017-10-06T13:18:48.579Z,100798.10
2017-10-06T13:21:15.986Z,100807.13
2017-10-06T13:23:44.073Z,100808.86
2017-10-06T13:26:13.311Z,100802.91
2017-10-06T13:28:40.743Z,100805.41
2017-10-06T13:31:08.147Z,100798.11
2017-10-06T13:33:35.555Z,100792.67
2017-10-06T13:36:02.978Z,100798.67
2017-10-06T13:38:30.377Z,100797.94
2017-10-06T13:40:57.776Z,100801.45
2017-10-06T13:43:25.439Z,100793.66
2017-10-06T13:45:52.823Z,100788.47
2017-10-06T13:48:20.251Z,100787.64
2017-10-06T13:50:47.655Z,100796.43
2017-10-06T13:53:15.887Z,100803.47
2017-10-06T13:55:44.388Z,100792.72
2017-10-06T13:58:12.250Z,100790.97
2017-10-06T14:00:39.711Z,100790.91
2017-10-06T14:03:07.110Z,100797.43
2017-10-06T14:05:34.951Z,100798.17
2017-10-06T14:08:02.343Z,100795.34
2017-10-06T14:10:29.798Z,100795.00
2017-10-06T14:12:57.211Z,100792.86
2017-10-06T14:15:24.607Z,100790.34
2017-10-06T14:17:52.493Z,100789.56
2017-10-06T14:20:19.947Z,100790.88
2017-10-06T14:22:48.021Z,100797.14
2017-10-06T14:25:15.472Z,100795.41
2017-10-06T14:27:42.887Z,100794.06
2017-10-06T14:30:10.283Z,100802.87
2017-10-06T14:32:37.691Z,100804.99
2017-10-06T14:35:05.100Z,100803.94
2017-10-06T14:37:32.515Z,100808.16
2017-10-06T14:39:59.915Z,100812.52
2017-10-06T14:42:27.319Z,100816.20
2017-10-06T14:44:54.719Z,100822.28
2017-10-06T14:47:22.119Z,100825.52
2017-10-06T14:49:49.553Z,100827.77
2017-10-06T14:52:16.968Z,100827.37
2017-10-06T14:54:44.364Z,100837.71
2017-10-06T14:57:11.784Z,100829.21
2017-10-06T14:59:39.183Z,100819.75
2017-10-06T15:02:06.699Z,100819.02
2017-10-06T15:04:35.651Z,100816.87
2017-10-06T15:07:03.071Z,100813.98
2017-10-06T15:09:30.489Z,100812.12
2017-10-06T15:11:57.923Z,100825.70
2017-10-06T15:14:25.334Z,100866.31
2017-10-06T15:16:52.740Z,100881.42
2017-10-06T15:19:21.441Z,100868.45
2017-10-06T15:21:48.855Z,100855.62
2017-10-06T15:24:16.261Z,100856.96
2017-10-06T15:26:43.679Z,100859.20
2017-10-06T15:29:11.087Z,100860.34
2017-10-06T15:31:39.452Z,100861.08
2017-10-06T15:34:06.888Z,100858.91
2017-10-06T15:36:34.296Z,100862.31
2017-10-06T15:39:02.135Z,100857.05
2017-10-06T15:41:29.564Z,100865.09
2017-10-06T15:43:56.959Z,100866.23
2017-10-06T15:46:24.411Z,100875.05
2017-10-06T15:48:51.843Z,100871.88
2017-10-06T15:51:19.244Z,100878.36
2017-10-06T15:53:46.659Z,100889.05
2017-10-06T15:56:14.090Z,100894.67
2017-10-06T15:58:41.496Z,100891.20
2017-10-06T16:01:09.019Z,100886.16
2017-10-06T16:03:36.459Z,100895.63
2017-10-06T16:06:04.475Z,100895.43
2017-10-06T16:08:40.218Z,100896.12
2017-10-06T16:11:07.616Z,100895.93
2017-10-06T16:13:35.012Z,100898.11
2017-10-06T16:16:02.995Z,100899.83
2017-10-06T16:18:31.124Z,100901.78
2017-10-06T16:20:58.523Z,100908.61
2017-10-06T16:23:27.073Z,100913.04
2017-10-06T16:25:54.487Z,100911.59
2017-10-06T16:28:21.888Z,100912.31
2017-10-06T16:30:49.324Z,100915.72
2017-10-06T16:33:16.729Z,100917.55
2017-10-06T16:35:44.128Z,100921.98
2017-10-06T16:38:11.543Z,100907.13
2017-10-06T16:40:39.031Z,100917.12
2017-10-06T16:43:06.423Z,100914.03
2017-10-06T16:45:33.847Z,100920.70
2017-10-06T16:48:01.257Z,100926.45
2017-10-06T16:50:28.663Z,100932.21
2017-10-06T16:52:56.106Z,100942.36
2017-10-06T16:55:23.523Z,100945.54
2017-10-06T16:57:50.925Z,100941.11
2017-10-06T17:00:18.343Z,100950.97
2017-10-06T17:02:45.746Z,100956.09
2017-10-06T17:05:13.223Z,100952.50
2017-10-06T17:07:40.636Z,100960.83
2017-10-06T17:10:08.032Z,100966.16
2017-10-06T17:12:35.432Z,100968.75
2017-10-06T17:15:02.875Z,100971.64
2017-10-06T17:17:30.282Z,100969.66
2017-10-06T17:19:57.732Z,100969.14
2017-10-06T17:22:25.135Z,100972.75
2017-10-06T17:24:52.560Z,100980.66
2017-10-06T17:27:19.986Z,100977.88
2017-10-06T17:29:47.403Z,100986.81
2017-10-06T17:32:14.838Z,100990.70
2017-10-06T17:34:42.260Z,100996.78
2017-10-06T17:37:10.667Z,101000.59
2017-10-06T17:39:38.372Z,101006.73
2017-10-06T17:42:05.771Z,101012.06
2017-10-06T17:44:34.647Z,101014.75
2017-10-06T17:47:02.055Z,101010.94
2017-10-06T17:49:29.483Z,101012.78
2017-10-06T17:51:57.738Z,101021.62
2017-10-06T17:54:25.152Z,101018.20
2017-10-06T17:56:52.568Z,101021.90
2017-10-06T17:59:20.113Z,101017.27
2017-10-06T18:01:48.223Z,101021.59
2017-10-06T18:04:15.651Z,101023.23
2017-10-06T18:06:43.839Z,101027.55
2017-10-06T18:09:11.256Z,101037.19
2017-10-06T18:11:38.732Z,101037.59
2017-10-06T18:14:06.623Z,101040.80
2017-10-06T18:16:35.188Z,101043.36
2017-10-06T18:19:02.609Z,101043.77
2017-10-06T18:21:30.074Z,101050.34
2017-10-06T18:23:57.467Z,101047.23
2017-10-06T18:26:24.871Z,101053.91
2017-10-06T18:28:52.287Z,101047.83
2017-10-06T18:31:19.747Z,101047.70
2017-10-06T18:33:47.159Z,101053.48
2017-10-06T18:36:14.612Z,101061.27
2017-10-06T18:38:42.003Z,101055.09
2017-10-06T18:41:09.447Z,101058.28
2017-10-06T18:43:36.847Z,101057.73
2017-10-06T18:46:04.247Z,101057.69
2017-10-06T18:48:31.655Z,101057.06
2017-10-06T18:50:59.074Z,101059.39
2017-10-06T18:53:26.480Z,101063.06
2017-10-06T18:55:53.891Z,101057.54
2017-10-06T18:58:21.340Z,101062.45
2017-10-06T19:00:48.748Z,101065.05
2017-10-06T19:03:16.127Z,101066.83
2017-10-06T19:05:43.656Z,101071.37
2017-10-06T19:08:11.059Z,101076.09
2017-10-06T19:10:38.475Z,101072.30
2017-10-06T19:13:05.891Z,101073.23
2017-10-06T19:15:33.307Z,101079.25
2017-10-06T19:18:00.703Z,101075.61
2017-10-06T19:20:28.135Z,101078.91
2017-10-06T19:22:55.543Z,101078.91
2017-10-06T19:25:22.955Z,101077.83
2017-10-06T19:27:50.379Z,101083.20
2017-10-06T19:30:17.784Z,101088.44
2017-10-06T19:32:45.227Z,101081.61
2017-10-06T19:35:12.640Z,101087.00
2017-10-06T19:37:40.055Z,101087.15
2017-10-06T19:40:07.490Z,101090.31
2017-10-06T19:42:34.903Z,101091.89
2017-10-06T19:45:02.323Z,101098.66
2017-10-06T19:47:29.711Z,101099.27
2017-10-06T19:49:57.155Z,101104.98
2017-10-06T19:52:24.568Z,101109.36
2017-10-06T19:54:51.975Z,101113.34
2017-10-06T19:57:19.386Z,101115.16
2017-10-06T19:59:46.795Z,101120.00
2017-10-06T20:02:14.203Z,101119.75
2017-10-06T20:04:41.610Z,101119.91
2017-10-06T20:07:09.045Z,101122.48
2017-10-06T20:09:36.463Z,101130.44
2017-10-06T20:12:03.895Z,101130.28
2017-10-06T20:14:31.287Z,101130.05
2017-10-06T20:16:58.709Z,101129.52
2017-10-06T20:19:26.111Z,101135.38
2017-10-06T20:21:53.527Z,101140.75
2017-10-06T20:24:21.028Z,101144.02
2017-10-06T20:26:48.480Z,101145.56
2017-10-06T20:29:15.901Z,101148.52
2017-10-06T20:31:44.127Z,101153.78
2017-10-06T20:34:11.700Z,101153.81
2017-10-06T20:36:39.087Z,101155.82
2017-10-06T20:39:06.512Z,101157.58
2017-10-06T20:41:33.923Z,101163.33
2017-10-06T20:44:01.327Z,101164.88
2017-10-06T20:46:28.739Z,101167.20
2017-10-06T20:48:56.160Z,101160.98
2017-10-06T20:51:23.587Z,101162.20
2017-10-06T20:53:51.023Z,101160.06
2017-10-06T20:56:18.462Z,101151.89
2017-10-06T20:58:45.867Z,101148.28
2017-10-06T21:01:13.279Z,101151.58
2017-10-06T21:03:40.695Z,101148.91
2017-10-06T21:06:08.106Z,101149.72
2017-10-06T21:08:35.531Z,101146.11
2017-10-06T21:11:02.939Z,101157.05
2017-10-06T21:13:30.355Z,101152.91
2017-10-06T21:15:57.781Z,101158.43
2017-10-06T21:18:25.184Z,101166.57
2017-10-06T21:20:52.632Z,101165.41
2017-10-06T21:23:20.024Z,101171.56
2017-10-06T21:25:47.458Z,101171.77
2017-10-06T21:28:14.863Z,101166.13
2017-10-06T21:30:42.265Z,101175.40
2017-10-06T21:33:09.691Z,101175.36
2017-10-06T21:35:37.116Z,101179.72
2017-10-06T21:38:04.515Z,101180.06
2017-10-06T21:40:32.011Z,101174.52
2017-10-06T21:42:59.407Z,101175.59
2017-10-06T21:45:26.808Z,101177.11
2017-10-06T21:47:54.220Z,101182.55
2017-10-06T21:50:21.627Z,101177.22
2017-10-06T21:52:49.028Z,101192.11
2017-10-06T21:55:16.445Z,101190.25
2017-10-06T21:57:43.846Z,101194.88
2017-10-06T22:00:11.243Z,101199.62
2017-10-06T22:02:38.670Z,101202.32
2017-10-06T22:05:06.059Z,101204.81
2017-10-06T22:07:33.461Z,101203.31
2017-10-06T22:10:00.884Z,101208.54
2017-10-06T22:12:28.291Z,101206.89
2017-10-06T22:14:55.704Z,101208.78
2017-10-06T22:17:23.116Z,101206.74
2017-10-06T22:19:50.519Z,101204.25
2017-10-06T22:22:17.928Z,101212.14
2017-10-06T22:24:45.347Z,101215.41
2017-10-06T22:27:12.755Z,101210.00
2017-10-06T22:29:40.159Z,101205.47
2017-10-06T22:32:07.641Z,101210.53
2017-10-06T22:34:35.043Z,101204.03
2017-10-06T22:37:02.456Z,101201.39
2017-10-06T22:39:29.876Z,101204.80
2017-10-06T22:41:57.274Z,101199.64
2017-10-06T22:44:24.678Z,101198.89
2017-10-06T22:46:52.097Z,101201.21
2017-10-06T22:49:19.494Z,101200.83
2017-10-06T22:51:46.899Z,101201.77
2017-10-06T22:54:14.317Z,101213.50
2017-10-06T22:56:41.711Z,101205.72
2017-10-06T22:59:09.131Z,101206.87
2017-10-06T23:01:36.531Z,101211.62
2017-10-06T23:04:03.936Z,101209.38
2017-10-06T23:06:31.328Z,101214.47
2017-10-06T23:08:58.744Z,101210.10
2017-10-06T23:11:26.143Z,101212.77
2017-10-06T23:13:53.556Z,101217.68
2017-10-06T23:16:20.968Z,101218.59
2017-10-06T23:18:48.375Z,101217.02
2017-10-06T23:21:15.771Z,101209.69
2017-10-06T23:23:43.194Z,101218.33
2017-10-06T23:26:11.319Z,101211.55
2017-10-06T23:28:38.732Z,101210.22
2017-10-06T23:31:06.290Z,101218.08
2017-10-06T23:33:33.691Z,101216.88
2017-10-06T23:36:01.095Z,101218.74
2017-10-06T23:38:28.503Z,101213.72
2017-10-06T23:40:55.899Z,101214.34
2017-10-06T23:43:23.302Z,101209.88
2017-10-06T23:45:50.710Z,101211.08
2017-10-06T23:48:18.123Z,101206.37
2017-10-06T23:50:45.518Z,101208.12
2017-10-06T23:53:12.942Z,101213.18
2017-10-06T23:55:40.341Z,101212.02
2017-10-06T23:58:07.738Z,101214.91
